Time;durP1;ratioP1;P1;durP2;ratioP2;P2;SDS_P1;SDS_P2;PMS_P1;PMS_P2;Temp;Humidity;BMP_temperature;BMP_pressure;BME280_temperature;BME280_humidity;BME280_pressure;Samples;Min_cycle;Max_cycle;Signal;HPM_P1;HPM_P2
2021/10/30 00:02:20;;;;;;;13.15;11.38;;;;;;;;;;5035108;28;20021;-89
2021/10/30 00:04:45;;;;;;;21.55;12.50;;;;;;;;;;5016540;28;20033;-89
2021/10/30 00:07:14;;;;;;;13.75;11.52;;;;;;;;;;5017253;28;20021;-89
2021/10/30 00:09:41;;;;;;;13.00;11.60;;;;;;;;;;5017721;28;20021;-89
2021/10/30 00:12:06;;;;;;;16.23;13.45;;;;;;;;;;5017517;28;20017;-89
2021/10/30 00:14:31;;;;;;;17.63;12.07;;;;;;;;;;5016717;28;20078;-89
2021/10/30 00:16:57;;;;;;;16.80;12.73;;;;;;;;;;5017250;28;20080;-88
2021/10/30 00:19:22;;;;;;;14.02;11.32;;;;;;;;;;5034967;28;20032;-89
2021/10/30 00:21:52;;;;;;;18.05;12.55;;;;;;;;;;5019382;28;20024;-88
2021/10/30 00:24:17;;;;;;;15.07;11.60;;;;;;;;;;5035524;28;20022;-89
2021/10/30 00:26:43;;;;;;;18.38;12.85;;;;;;;;;;5034931;28;20488;-89
2021/10/30 00:29:08;;;;;;;17.67;12.25;;;;;;;;;;5034540;28;20029;-89
2021/10/30 00:31:34;;;;;;;17.27;11.68;;;;;;;;;;5017534;28;20013;-89
2021/10/30 00:33:59;;;;;;;18.00;11.80;;;;;;;;;;5016467;28;20083;-89
2021/10/30 00:36:24;;;;;;;14.65;11.70;;;;;;;;;;5034674;28;20013;-89
2021/10/30 00:38:49;;;;;;;19.25;13.43;;;;;;;;;;5016498;28;20425;-89
2021/10/30 00:41:15;;;;;;;15.68;12.98;;;;;;;;;;5016818;28;20025;-89
2021/10/30 00:43:41;;;;;;;16.35;12.23;;;;;;;;;;5034869;28;20354;-89
2021/10/30 00:46:06;;;;;;;17.95;12.90;;;;;;;;;;5036762;28;20828;-89
2021/10/30 00:48:31;;;;;;;15.65;13.07;;;;;;;;;;5016699;28;20033;-89
2021/10/30 00:50:58;;;;;;;20.05;14.82;;;;;;;;;;5034889;28;20022;-89
2021/10/30 00:53:27;;;;;;;18.17;14.70;;;;;;;;;;5034199;28;20025;-89
2021/10/30 00:55:53;;;;;;;21.45;15.27;;;;;;;;;;5034270;28;20100;-89
2021/10/30 00:58:19;;;;;;;20.55;15.13;;;;;;;;;;5016453;28;20052;-89
2021/10/30 01:00:44;;;;;;;18.13;14.38;;;;;;;;;;5034280;28;20086;-89
2021/10/30 01:03:10;;;;;;;20.88;15.43;;;;;;;;;;5034386;28;20022;-89
2021/10/30 01:05:35;;;;;;;17.60;14.70;;;;;;;;;;5016117;28;20018;-89
2021/10/30 01:08:00;;;;;;;22.80;15.18;;;;;;;;;;5016709;28;20803;-89
2021/10/30 01:10:26;;;;;;;23.40;15.33;;;;;;;;;;5016588;28;20017;-89
2021/10/30 01:12:51;;;;;;;21.40;15.07;;;;;;;;;;5035336;28;20620;-89
2021/10/30 01:15:16;;;;;;;19.30;15.15;;;;;;;;;;5016298;28;20418;-89
2021/10/30 01:17:42;;;;;;;24.33;15.00;;;;;;;;;;5034033;28;20009;-89
2021/10/30 01:20:07;;;;;;;19.97;14.30;;;;;;;;;;5016977;28;20028;-89
2021/10/30 01:22:35;;;;;;;21.48;15.68;;;;;;;;;;5016787;28;20104;-89
2021/10/30 01:25:01;;;;;;;18.35;15.10;;;;;;;;;;5016228;28;20018;-89
2021/10/30 01:27:26;;;;;;;20.65;14.60;;;;;;;;;;5016637;28;20088;-89
2021/10/30 01:29:51;;;;;;;20.40;16.58;;;;;;;;;;5033867;28;20934;-89
2021/10/30 01:32:17;;;;;;;18.63;14.77;;;;;;;;;;5016375;28;20108;-89
2021/10/30 01:34:43;;;;;;;18.70;15.57;;;;;;;;;;5034065;28;20440;-88
2021/10/30 01:37:08;;;;;;;22.38;15.43;;;;;;;;;;5034005;28;20108;-89
2021/10/30 01:39:34;;;;;;;19.45;15.32;;;;;;;;;;5015939;28;20018;-89
2021/10/30 01:41:59;;;;;;;20.88;14.43;;;;;;;;;;5016239;28;20029;-89
2021/10/30 01:44:25;;;;;;;19.77;14.10;;;;;;;;;;5034294;28;20450;-89
2021/10/30 01:46:54;;;;;;;22.48;17.80;;;;;;;;;;5034078;28;20046;-89
2021/10/30 01:49:20;;;;;;;21.77;16.80;;;;;;;;;;5016197;28;20033;-89
2021/10/30 01:51:45;;;;;;;22.33;15.97;;;;;;;;;;5034071;28;20021;-89
2021/10/30 01:54:10;;;;;;;22.43;17.20;;;;;;;;;;5016573;28;20612;-89
2021/10/30 01:56:35;;;;;;;21.73;16.65;;;;;;;;;;5016098;28;20260;-89
2021/10/30 01:59:00;;;;;;;23.35;16.70;;;;;;;;;;5033817;28;20100;-89
2021/10/30 02:01:26;;;;;;;24.60;17.23;;;;;;;;;;5015934;28;20449;-89
2021/10/30 02:03:51;;;;;;;22.30;17.05;;;;;;;;;;5016496;28;20402;-89
2021/10/30 02:06:16;;;;;;;21.00;17.67;;;;;;;;;;5017933;28;20454;-89
2021/10/30 02:08:42;;;;;;;20.98;17.65;;;;;;;;;;5033712;28;20029;-89
2021/10/30 02:11:07;;;;;;;22.35;17.30;;;;;;;;;;5033922;28;20022;-89
2021/10/30 02:13:33;;;;;;;23.30;17.20;;;;;;;;;;5015521;28;20017;-89
2021/10/30 02:15:58;;;;;;;20.67;17.30;;;;;;;;;;5015827;28;20021;-89
2021/10/30 02:18:23;;;;;;;25.88;17.55;;;;;;;;;;5033698;28;20022;-88
2021/10/30 02:20:48;;;;;;;21.70;16.50;;;;;;;;;;5015757;28;20056;-88
2021/10/30 02:23:14;;;;;;;22.57;18.13;;;;;;;;;;5015792;28;20026;-88
2021/10/30 02:25:39;;;;;;;20.05;17.13;;;;;;;;;;5033310;28;20634;-88
2021/10/30 02:28:05;;;;;;;23.00;17.65;;;;;;;;;;5018051;28;20035;-88
2021/10/30 02:30:30;;;;;;;24.88;18.77;;;;;;;;;;5019240;28;20881;-88
2021/10/30 02:32:55;;;;;;;21.25;17.00;;;;;;;;;;5036973;28;20017;-89
2021/10/30 02:35:21;;;;;;;23.27;18.85;;;;;;;;;;5019884;28;20156;-89
2021/10/30 02:37:46;;;;;;;25.90;18.07;;;;;;;;;;5020588;28;20014;-88
2021/10/30 02:40:11;;;;;;;21.05;17.77;;;;;;;;;;5018892;28;20264;-88
2021/10/30 02:42:36;;;;;;;27.15;20.45;;;;;;;;;;5036876;28;20018;-89
2021/10/30 02:45:03;;;;;;;28.05;20.10;;;;;;;;;;5018659;28;20013;-89
2021/10/30 02:47:29;;;;;;;25.08;18.50;;;;;;;;;;5036501;28;20033;-89
2021/10/30 02:49:54;;;;;;;25.60;19.77;;;;;;;;;;5018969;28;20021;-88
2021/10/30 02:52:20;;;;;;;27.10;20.13;;;;;;;;;;5019676;28;20025;-89
2021/10/30 02:54:45;;;;;;;23.15;18.63;;;;;;;;;;5036462;28;20476;-89
2021/10/30 02:57:10;;;;;;;25.35;19.25;;;;;;;;;;5018722;28;20013;-89
2021/10/30 02:59:35;;;;;;;26.85;19.00;;;;;;;;;;5018585;28;20060;-89
2021/10/30 03:02:01;;;;;;;31.73;20.77;;;;;;;;;;5019212;28;20017;-89
2021/10/30 03:04:26;;;;;;;26.20;20.20;;;;;;;;;;5037771;28;20025;-89
2021/10/30 03:06:51;;;;;;;29.25;20.38;;;;;;;;;;5036005;28;20793;-89
2021/10/30 03:09:17;;;;;;;28.98;21.15;;;;;;;;;;5019202;28;20029;-89
2021/10/30 03:11:42;;;;;;;28.42;21.50;;;;;;;;;;5018823;28;20491;-88
2021/10/30 03:14:07;;;;;;;23.67;19.30;;;;;;;;;;5018127;28;20688;-88
2021/10/30 03:16:32;;;;;;;25.23;19.83;;;;;;;;;;5021166;28;20021;-89
2021/10/30 03:18:58;;;;;;;24.38;19.92;;;;;;;;;;5027539;28;20259;-89
2021/10/30 03:21:23;;;;;;;24.07;20.23;;;;;;;;;;5018315;28;20027;-89
2021/10/30 03:23:48;;;;;;;25.70;20.55;;;;;;;;;;5036101;28;20256;-89
2021/10/30 03:26:14;;;;;;;26.98;21.02;;;;;;;;;;5035379;28;20083;-89
2021/10/30 03:28:39;;;;;;;25.70;20.93;;;;;;;;;;5017730;28;20091;-89
2021/10/30 03:31:04;;;;;;;27.35;20.63;;;;;;;;;;5021410;28;20275;-89
2021/10/30 03:33:29;;;;;;;27.13;21.50;;;;;;;;;;5035587;28;20509;-89
2021/10/30 03:35:55;;;;;;;26.52;20.08;;;;;;;;;;5035599;28;20835;-89
2021/10/30 03:38:20;;;;;;;29.00;22.15;;;;;;;;;;5018723;28;20469;-89
2021/10/30 03:40:46;;;;;;;30.85;21.35;;;;;;;;;;5035864;28;20053;-89
2021/10/30 03:43:11;;;;;;;31.58;21.80;;;;;;;;;;5018029;28;20038;-89
2021/10/30 03:45:36;;;;;;;33.03;22.65;;;;;;;;;;5017721;28;20021;-89
2021/10/30 03:48:03;;;;;;;32.78;21.48;;;;;;;;;;5017941;28;20085;-89
2021/10/30 03:50:28;;;;;;;28.75;21.95;;;;;;;;;;5035560;28;20476;-89
2021/10/30 03:52:53;;;;;;;31.95;22.15;;;;;;;;;;5035755;28;20057;-89
2021/10/30 03:55:19;;;;;;;28.17;21.17;;;;;;;;;;5017955;28;20021;-89
2021/10/30 03:57:44;;;;;;;33.10;23.90;;;;;;;;;;5035651;28;20260;-89
2021/10/30 04:00:10;;;;;;;31.03;23.23;;;;;;;;;;5036436;28;20029;-89
2021/10/30 04:02:35;;;;;;;31.55;21.92;;;;;;;;;;5017978;28;20256;-88
2021/10/30 04:05:00;;;;;;;31.50;23.00;;;;;;;;;;5035221;28;20064;-89
2021/10/30 04:07:25;;;;;;;39.43;24.90;;;;;;;;;;5035091;28;20644;-89
2021/10/30 04:09:50;;;;;;;31.20;21.85;;;;;;;;;;5035003;28;20028;-88
2021/10/30 04:12:16;;;;;;;33.37;23.97;;;;;;;;;;5035111;28;20359;-89
2021/10/30 04:14:41;;;;;;;33.78;23.20;;;;;;;;;;5017436;28;20268;-89
2021/10/30 04:17:06;;;;;;;34.15;23.65;;;;;;;;;;5035168;28;20428;-89
2021/10/30 04:19:32;;;;;;;36.92;23.73;;;;;;;;;;5017358;28;20075;-89
2021/10/30 04:21:57;;;;;;;35.00;25.15;;;;;;;;;;5017325;28;20029;-89
2021/10/30 04:24:22;;;;;;;34.05;23.63;;;;;;;;;;5018675;28;20088;-89
2021/10/30 04:26:47;;;;;;;35.03;25.45;;;;;;;;;;5017085;28;20021;-89
2021/10/30 04:29:13;;;;;;;32.85;23.55;;;;;;;;;;5017166;28;20021;-89
2021/10/30 04:31:38;;;;;;;34.80;25.13;;;;;;;;;;5016951;28;20021;-89
2021/10/30 04:34:05;;;;;;;33.97;24.10;;;;;;;;;;5034670;28;20125;-89
2021/10/30 04:36:31;;;;;;;36.78;24.35;;;;;;;;;;5034525;28;20373;-89
2021/10/30 04:38:57;;;;;;;30.92;23.33;;;;;;;;;;5017014;28;20056;-89
2021/10/30 04:41:23;;;;;;;32.50;23.63;;;;;;;;;;5016770;28;20381;-89
2021/10/30 04:43:49;;;;;;;32.38;23.88;;;;;;;;;;5034541;28;20022;-89
2021/10/30 04:46:15;;;;;;;30.67;23.17;;;;;;;;;;5017031;28;20117;-88
2021/10/30 04:48:40;;;;;;;35.78;24.38;;;;;;;;;;5016677;28;20041;-88
2021/10/30 04:51:06;;;;;;;37.72;24.83;;;;;;;;;;5037215;28;20018;-88
2021/10/30 04:53:33;;;;;;;31.27;22.25;;;;;;;;;;5036144;28;20025;-89
2021/10/30 04:55:58;;;;;;;30.00;22.98;;;;;;;;;;5016824;28;20084;-88
2021/10/30 04:58:23;;;;;;;35.92;25.10;;;;;;;;;;5016700;28;20111;-89
2021/10/30 05:00:48;;;;;;;34.13;24.77;;;;;;;;;;5016592;28;20014;-89
2021/10/30 05:03:13;;;;;;;39.92;24.55;;;;;;;;;;5016987;28;20352;-89
2021/10/30 05:05:39;;;;;;;30.20;22.25;;;;;;;;;;5034261;28;20021;-89
2021/10/30 05:08:04;;;;;;;31.67;21.67;;;;;;;;;;5017562;28;20039;-89
2021/10/30 05:10:29;;;;;;;30.87;23.70;;;;;;;;;;5033886;28;20265;-89
2021/10/30 05:12:54;;;;;;;37.90;23.67;;;;;;;;;;5034533;28;20295;-89
2021/10/30 05:15:19;;;;;;;31.02;22.95;;;;;;;;;;5034732;28;20034;-89
2021/10/30 05:17:45;;;;;;;35.05;26.05;;;;;;;;;;5016690;28;20022;-89
2021/10/30 05:20:10;;;;;;;32.50;22.75;;;;;;;;;;5016334;28;20029;-89
2021/10/30 05:22:36;;;;;;;36.78;23.73;;;;;;;;;;5035027;28;20044;-89
2021/10/30 05:25:01;;;;;;;33.67;24.35;;;;;;;;;;5016378;28;20028;-89
2021/10/30 05:27:27;;;;;;;28.02;21.77;;;;;;;;;;5015624;28;20014;-89
2021/10/30 05:29:52;;;;;;;33.55;23.23;;;;;;;;;;5033882;28;20014;-89
2021/10/30 05:32:17;;;;;;;27.88;22.50;;;;;;;;;;5016254;28;20024;-89
2021/10/30 05:34:43;;;;;;;32.45;24.10;;;;;;;;;;5015626;28;20057;-90
2021/10/30 05:37:08;;;;;;;29.60;22.52;;;;;;;;;;5016190;28;20485;-89
2021/10/30 05:39:36;;;;;;;29.45;22.15;;;;;;;;;;5015929;28;20026;-89
2021/10/30 05:42:01;;;;;;;33.38;22.50;;;;;;;;;;5033786;28;20104;-90
2021/10/30 05:44:26;;;;;;;35.67;23.15;;;;;;;;;;5034056;28;20472;-89
2021/10/30 05:46:51;;;;;;;30.90;23.10;;;;;;;;;;5033757;28;20027;-87
2021/10/30 05:49:18;;;;;;;31.63;23.85;;;;;;;;;;5016187;28;20021;-88
2021/10/30 05:51:43;;;;;;;31.75;24.23;;;;;;;;;;5015926;28;20796;-87
2021/10/30 05:54:08;;;;;;;27.70;22.15;;;;;;;;;;5015698;28;20044;-89
2021/10/30 05:56:33;;;;;;;31.37;22.33;;;;;;;;;;5039624;28;20124;-89
2021/10/30 05:58:59;;;;;;;34.35;22.38;;;;;;;;;;5040281;28;20261;-89
2021/10/30 06:01:24;;;;;;;32.00;23.67;;;;;;;;;;5016585;28;20037;-88
2021/10/30 06:03:50;;;;;;;30.85;22.13;;;;;;;;;;5019374;28;20260;-89
2021/10/30 06:06:17;;;;;;;31.25;23.77;;;;;;;;;;5038290;28;20019;-89
2021/10/30 06:08:43;;;;;;;33.42;23.38;;;;;;;;;;5048544;28;20816;-89
2021/10/30 06:11:08;;;;;;;34.75;21.88;;;;;;;;;;5059375;28;20012;-89
2021/10/30 06:13:33;;;;;;;31.00;22.23;;;;;;;;;;5057936;28;20785;-89
2021/10/30 06:16:00;;;;;;;36.38;24.05;;;;;;;;;;5057220;28;20288;-89
2021/10/30 06:18:29;;;;;;;29.52;22.33;;;;;;;;;;5049007;28;20021;-89
2021/10/30 06:20:54;;;;;;;31.03;22.60;;;;;;;;;;5026054;28;20087;-89
2021/10/30 06:23:19;;;;;;;35.47;24.02;;;;;;;;;;5034577;28;20282;-89
2021/10/30 06:25:46;;;;;;;34.10;23.60;;;;;;;;;;5037478;28;20416;-89
2021/10/30 06:28:14;;;;;;;38.53;22.13;;;;;;;;;;5033526;28;20120;-89
2021/10/30 06:30:46;;;;;;;30.02;21.80;;;;;;;;;;5016134;28;20108;-89
2021/10/30 06:33:16;;;;;;;30.77;23.20;;;;;;;;;;5014487;28;20042;-89
2021/10/30 06:35:41;;;;;;;32.00;22.90;;;;;;;;;;5019627;28;20033;-89
2021/10/30 06:38:08;;;;;;;26.00;20.77;;;;;;;;;;5084096;22;20103;-89
2021/10/30 06:41:01;;;;;;;31.92;21.95;;;;;;;;;;4533025;22;21717;31
2021/10/30 06:46:04;;;;;;;33.20;23.42;;;;;;;;;;5062766;22;20342;-89
2021/10/30 06:48:30;;;;;;;35.13;22.00;;;;;;;;;;5033131;28;20045;-90
2021/10/30 06:53:35;;;;;;;25.45;20.92;;;;;;;;;;5488179;22;20071;-89
2021/10/30 07:04:29;;;;;;;28.70;21.73;;;;;;;;;;3282154;22;20028;31
2021/10/30 07:06:56;;;;;;;28.03;20.53;;;;;;;;;;5175364;22;20061;-88
2021/10/30 07:09:23;;;;;;;24.90;18.40;;;;;;;;;;5036704;28;20702;-88
2021/10/30 07:11:53;;;;;;;22.45;18.42;;;;;;;;;;5352378;22;20067;-88
2021/10/30 07:14:21;;;;;;;23.85;18.38;;;;;;;;;;5035044;28;20025;-88
2021/10/30 07:16:46;;;;;;;25.55;18.77;;;;;;;;;;5054942;28;20477;-88
2021/10/30 07:19:12;;;;;;;24.13;17.25;;;;;;;;;;5037856;28;20021;-88
2021/10/30 07:21:39;;;;;;;24.40;18.25;;;;;;;;;;5035277;28;20032;-88
2021/10/30 07:24:05;;;;;;;22.63;15.65;;;;;;;;;;5075864;23;20064;-88
2021/10/30 07:26:38;;;;;;;21.75;16.35;;;;;;;;;;5034351;28;20021;-89
2021/10/30 07:32:02;;;;;;;22.45;17.27;;;;;;;;;;5012788;28;20073;-88
2021/10/30 07:34:28;;;;;;;23.15;17.25;;;;;;;;;;4996697;28;20042;-89
2021/10/30 07:36:58;;;;;;;23.88;17.42;;;;;;;;;;5010915;28;20030;-89
2021/10/30 07:48:17;;;;;;;20.17;15.88;;;;;;;;;;4952108;28;20631;-89
2021/10/30 08:03:43;;;;;;;21.42;14.57;;;;;;;;;;3833363;22;20112;31
2021/10/30 08:08:45;;;;;;;18.55;14.90;;;;;;;;;;5056346;22;20060;-88
2021/10/30 08:11:10;;;;;;;18.20;13.35;;;;;;;;;;5035627;28;20056;-89
2021/10/30 08:13:36;;;;;;;17.75;14.20;;;;;;;;;;5034307;28;20418;-89
2021/10/30 08:27:05;;;;;;;19.45;12.75;;;;;;;;;;3740543;22;21261;-88
2021/10/30 08:29:31;;;;;;;19.52;12.73;;;;;;;;;;4949784;29;20055;-88
2021/10/30 08:31:58;;;;;;;15.48;12.10;;;;;;;;;;4955315;29;20041;-88
2021/10/30 08:34:23;;;;;;;13.07;10.98;;;;;;;;;;4954113;29;20066;-88
2021/10/30 08:45:02;;;;;;;13.85;11.13;;;;;;;;;;4359055;22;20227;-87
2021/10/30 08:47:54;;;;;;;15.35;11.38;;;;;;;;;;3064077;22;20198;-88
2021/10/30 08:50:56;;;;;;;14.43;10.63;;;;;;;;;;4782608;22;20173;-87
2021/10/30 08:58:38;;;;;;;17.23;10.70;;;;;;;;;;5139291;22;20056;-88
2021/10/30 09:03:35;;;;;;;15.40;10.85;;;;;;;;;;5112877;22;20084;-88
2021/10/30 09:08:34;;;;;;;18.52;10.27;;;;;;;;;;5030187;28;20096;-87
2021/10/30 09:11:01;;;;;;;14.82;10.15;;;;;;;;;;5048915;28;20017;-88
2021/10/30 09:13:27;;;;;;;14.93;9.77;;;;;;;;;;5014574;28;20073;-87
2021/10/30 09:15:53;;;;;;;14.18;11.18;;;;;;;;;;5047970;28;20072;-88
2021/10/30 09:18:32;;;;;;;18.25;11.25;;;;;;;;;;5015820;28;20018;-88
2021/10/30 09:21:04;;;;;;;15.70;10.50;;;;;;;;;;5015303;28;20031;-87
2021/10/30 09:23:36;;;;;;;14.05;10.80;;;;;;;;;;5033971;28;20049;-87
2021/10/30 09:26:15;;;;;;;16.90;10.88;;;;;;;;;;5015748;28;20718;-88
2021/10/30 09:28:49;;;;;;;14.65;10.88;;;;;;;;;;5014422;28;20603;-88
2021/10/30 09:31:15;;;;;;;14.02;10.57;;;;;;;;;;5035805;28;20449;-88
2021/10/30 09:33:55;;;;;;;15.20;9.48;;;;;;;;;;5015722;28;20067;-88
2021/10/30 09:36:23;;;;;;;15.20;11.15;;;;;;;;;;5016986;28;20739;-88
2021/10/30 09:46:58;;;;;;;12.35;10.65;;;;;;;;;;5054615;28;20057;-88
2021/10/30 09:49:29;;;;;;;12.93;9.45;;;;;;;;;;5037889;28;20051;-87
2021/10/30 09:54:33;;;;;;;11.32;9.10;;;;;;;;;;5171078;22;20475;-86
2021/10/30 09:56:58;;;;;;;12.07;10.18;;;;;;;;;;5038716;28;20025;-86
2021/10/30 09:59:25;;;;;;;16.83;11.00;;;;;;;;;;5056666;28;20025;-87
2021/10/30 10:01:50;;;;;;;10.07;8.88;;;;;;;;;;5037591;28;20481;-86
2021/10/30 10:04:20;;;;;;;15.88;10.18;;;;;;;;;;5037345;28;20029;-87
2021/10/30 10:06:46;;;;;;;13.15;11.75;;;;;;;;;;5039211;28;20024;-86
2021/10/30 10:09:12;;;;;;;11.73;9.73;;;;;;;;;;5038651;28;20094;-86
2021/10/30 10:11:39;;;;;;;12.73;9.48;;;;;;;;;;5037651;28;20056;-87
2021/10/30 10:14:05;;;;;;;12.10;9.52;;;;;;;;;;5036388;28;20376;-87
2021/10/30 10:16:30;;;;;;;11.60;9.85;;;;;;;;;;5038684;28;20025;-87
2021/10/30 10:18:56;;;;;;;11.98;10.23;;;;;;;;;;5038564;28;20479;-87
2021/10/30 10:21:23;;;;;;;12.30;10.30;;;;;;;;;;5022234;28;20017;-87
2021/10/30 10:23:48;;;;;;;11.35;10.15;;;;;;;;;;5019333;28;20043;-87
2021/10/30 10:26:14;;;;;;;15.13;10.88;;;;;;;;;;5019596;28;20025;-87
2021/10/30 10:28:39;;;;;;;14.32;11.70;;;;;;;;;;5016576;28;20052;-87
2021/10/30 10:31:04;;;;;;;13.65;11.25;;;;;;;;;;5018127;28;20040;-87
2021/10/30 10:33:30;;;;;;;13.13;10.70;;;;;;;;;;5020172;28;20120;-87
2021/10/30 10:36:14;;;;;;;15.43;10.68;;;;;;;;;;5037575;28;20260;-87
2021/10/30 10:38:57;;;;;;;12.73;10.48;;;;;;;;;;5036403;28;20025;-87
2021/10/30 10:41:38;;;;;;;11.82;10.23;;;;;;;;;;5055975;28;20035;-87
2021/10/30 10:44:13;;;;;;;12.18;10.60;;;;;;;;;;5018748;28;20405;-87
2021/10/30 10:46:40;;;;;;;14.43;10.85;;;;;;;;;;5036190;28;20048;-87
2021/10/30 10:49:21;;;;;;;13.23;10.23;;;;;;;;;;5016696;28;20413;-87
2021/10/30 10:51:46;;;;;;;15.52;10.82;;;;;;;;;;5034807;28;20105;-87
2021/10/30 10:54:12;;;;;;;15.18;11.48;;;;;;;;;;5035557;28;20073;-87
2021/10/30 10:56:54;;;;;;;14.13;11.75;;;;;;;;;;5018377;28;20021;-86
2021/10/30 10:59:37;;;;;;;17.05;11.52;;;;;;;;;;5018174;28;20095;-87
2021/10/30 11:02:18;;;;;;;14.25;11.05;;;;;;;;;;5026527;28;20028;-87
2021/10/30 11:05:02;;;;;;;15.00;11.85;;;;;;;;;;5035565;28;20072;-87
2021/10/30 11:07:28;;;;;;;18.70;12.07;;;;;;;;;;5037898;28;20029;-87
2021/10/30 11:10:00;;;;;;;15.88;11.60;;;;;;;;;;5125520;22;20056;-87
2021/10/30 11:12:29;;;;;;;15.60;11.05;;;;;;;;;;5079027;22;20143;-88
2021/10/30 11:18:09;;;;;;;15.02;11.98;;;;;;;;;;5139418;22;20134;-88
2021/10/30 11:20:35;;;;;;;13.50;10.90;;;;;;;;;;5037218;28;20128;-87
2021/10/30 11:23:03;;;;;;;10.98;9.88;;;;;;;;;;5036403;28;20048;-88
2021/10/30 11:25:29;;;;;;;11.73;10.20;;;;;;;;;;5133555;22;20032;-88
2021/10/30 11:27:55;;;;;;;13.15;9.93;;;;;;;;;;5033311;28;20033;-87
2021/10/30 11:30:35;;;;;;;13.52;10.82;;;;;;;;;;5034985;28;20013;-88
2021/10/30 11:33:20;;;;;;;14.75;10.95;;;;;;;;;;5050585;23;20056;-88
2021/10/30 11:36:07;;;;;;;13.57;11.52;;;;;;;;;;5035883;28;20025;-88
2021/10/30 11:38:34;;;;;;;12.63;11.18;;;;;;;;;;5023073;28;20456;-88
2021/10/30 11:41:00;;;;;;;16.40;12.40;;;;;;;;;;5036120;28;20024;-87
2021/10/30 11:43:27;;;;;;;14.75;10.55;;;;;;;;;;5036768;28;20017;-87
2021/10/30 11:46:03;;;;;;;23.98;12.30;;;;;;;;;;5036439;28;20186;-87
2021/10/30 11:48:38;;;;;;;13.82;11.35;;;;;;;;;;5034059;28;20123;-88
2021/10/30 11:53:32;;;;;;;13.68;11.88;;;;;;;;;;5130590;22;20057;-88
2021/10/30 11:58:45;;;;;;;14.43;9.85;;;;;;;;;;5120490;22;20791;-88
2021/10/30 12:01:32;;;;;;;11.02;9.50;;;;;;;;;;5051128;28;20095;-88
2021/10/30 12:06:36;;;;;;;12.70;10.10;;;;;;;;;;5060537;22;20076;-88
2021/10/30 12:09:02;;;;;;;10.95;9.82;;;;;;;;;;5036648;28;20051;-88
2021/10/30 12:11:29;;;;;;;17.48;10.15;;;;;;;;;;5036836;28;20016;-88
2021/10/30 12:13:59;;;;;;;11.35;9.40;;;;;;;;;;5034988;28;20751;-88
2021/10/30 12:16:25;;;;;;;12.77;9.25;;;;;;;;;;5054449;28;20025;-88
2021/10/30 12:18:50;;;;;;;14.15;9.38;;;;;;;;;;5024247;28;20022;-88
2021/10/30 12:21:15;;;;;;;12.75;9.98;;;;;;;;;;5034525;28;20018;-88
2021/10/30 12:23:57;;;;;;;13.85;9.07;;;;;;;;;;5035128;28;20030;-88
2021/10/30 12:26:24;;;;;;;12.00;8.82;;;;;;;;;;5052432;28;20017;-88
2021/10/30 12:28:49;;;;;;;13.50;7.85;;;;;;;;;;5035812;28;20393;-88
2021/10/30 12:31:25;;;;;;;10.27;8.88;;;;;;;;;;5036190;28;20020;-87
2021/10/30 12:33:52;;;;;;;13.70;9.88;;;;;;;;;;5052875;28;20389;-87
2021/10/30 12:36:17;;;;;;;10.52;8.02;;;;;;;;;;5053198;28;20027;-87
2021/10/30 12:38:43;;;;;;;11.68;8.25;;;;;;;;;;5035563;28;20112;-88
2021/10/30 12:43:47;;;;;;;11.82;7.00;;;;;;;;;;5086733;22;20195;-88
2021/10/30 12:46:12;;;;;;;10.02;7.55;;;;;;;;;;5189380;23;20416;-88
2021/10/30 12:51:13;;;;;;;10.45;8.23;;;;;;;;;;5063917;22;20084;-88
2021/10/30 12:53:39;;;;;;;11.43;6.70;;;;;;;;;;5031369;28;20365;-88
2021/10/30 12:56:05;;;;;;;8.75;6.30;;;;;;;;;;5035055;28;20028;-88
2021/10/30 12:58:43;;;;;;;7.55;6.70;;;;;;;;;;5013735;28;20025;-88
2021/10/30 13:06:16;;;;;;;9.52;6.55;;;;;;;;;;5180705;22;20175;-89
2021/10/30 13:08:46;;;;;;;10.80;6.97;;;;;;;;;;5049682;28;20041;-88
2021/10/30 13:11:16;;;;;;;9.70;7.53;;;;;;;;;;5033482;28;20036;-88
2021/10/30 13:13:41;;;;;;;13.23;8.32;;;;;;;;;;5035060;28;20116;-88
2021/10/30 13:16:06;;;;;;;10.70;7.43;;;;;;;;;;5035436;28;20492;-88
2021/10/30 13:18:31;;;;;;;9.37;7.40;;;;;;;;;;5035561;28;20112;-88
2021/10/30 13:20:56;;;;;;;12.50;8.30;;;;;;;;;;5035377;28;20268;-88
2021/10/30 13:23:22;;;;;;;8.43;7.47;;;;;;;;;;5033632;28;20263;-88
2021/10/30 13:25:49;;;;;;;12.05;8.60;;;;;;;;;;5032405;28;20608;-89
2021/10/30 13:30:52;;;;;;;9.90;8.02;;;;;;;;;;5030244;28;20140;-88
2021/10/30 13:33:17;;;;;;;11.02;7.13;;;;;;;;;;5016172;28;20124;-88
2021/10/30 13:35:42;;;;;;;12.63;7.47;;;;;;;;;;5015454;28;20060;-88
2021/10/30 13:38:07;;;;;;;8.60;6.63;;;;;;;;;;5014597;28;20017;-88
2021/10/30 13:40:33;;;;;;;8.13;7.00;;;;;;;;;;5034322;28;20056;-88
2021/10/30 13:42:58;;;;;;;7.35;6.50;;;;;;;;;;5015578;28;20264;-88
2021/10/30 13:45:23;;;;;;;9.77;7.55;;;;;;;;;;5033417;28;20051;-88
2021/10/30 13:47:49;;;;;;;12.70;7.35;;;;;;;;;;5014173;28;20044;-88
2021/10/30 13:50:14;;;;;;;12.20;7.25;;;;;;;;;;5014849;28;20374;-88
2021/10/30 13:52:39;;;;;;;9.05;7.93;;;;;;;;;;5015454;28;20017;-88
2021/10/30 13:55:05;;;;;;;14.15;7.63;;;;;;;;;;5033719;28;20458;-88
2021/10/30 13:57:30;;;;;;;12.20;7.85;;;;;;;;;;5015927;28;20044;-88
2021/10/30 13:59:55;;;;;;;14.18;8.40;;;;;;;;;;5031713;28;20021;-88
2021/10/30 14:02:20;;;;;;;10.18;7.93;;;;;;;;;;5010437;28;20022;-88
2021/10/30 14:04:46;;;;;;;8.77;7.03;;;;;;;;;;5033529;28;20057;-88
2021/10/30 14:07:11;;;;;;;12.60;8.00;;;;;;;;;;5009006;28;20280;-88
2021/10/30 14:09:37;;;;;;;10.48;7.38;;;;;;;;;;4994608;28;20058;-88
2021/10/30 14:12:02;;;;;;;18.63;8.02;;;;;;;;;;4994591;28;20029;-88
2021/10/30 14:14:28;;;;;;;11.25;7.28;;;;;;;;;;4995612;28;20018;-88
2021/10/30 14:16:54;;;;;;;10.13;6.90;;;;;;;;;;4996047;28;20044;-88
2021/10/30 14:19:20;;;;;;;11.27;7.38;;;;;;;;;;4995156;28;20100;-88
2021/10/30 14:21:45;;;;;;;11.45;7.10;;;;;;;;;;5010494;28;20037;-88
2021/10/30 14:24:11;;;;;;;8.75;6.40;;;;;;;;;;5033545;28;20026;-88
2021/10/30 14:26:37;;;;;;;10.50;7.63;;;;;;;;;;5017232;28;20017;-88
2021/10/30 14:29:03;;;;;;;10.35;7.93;;;;;;;;;;5018341;28;20053;-88
2021/10/30 14:31:29;;;;;;;11.77;8.30;;;;;;;;;;5001600;28;20780;-88
2021/10/30 14:33:55;;;;;;;10.32;7.32;;;;;;;;;;4997329;28;20029;-88
2021/10/30 14:36:21;;;;;;;11.90;8.57;;;;;;;;;;4998404;28;20014;-88
2021/10/30 14:38:46;;;;;;;10.65;7.93;;;;;;;;;;4999743;28;20022;-88
2021/10/30 14:41:11;;;;;;;13.55;8.02;;;;;;;;;;4999446;28;20042;-88
2021/10/30 14:43:37;;;;;;;18.23;8.13;;;;;;;;;;4999807;28;20073;-89
2021/10/30 14:46:02;;;;;;;11.48;8.07;;;;;;;;;;4999225;28;20796;-88
2021/10/30 14:48:27;;;;;;;12.32;7.90;;;;;;;;;;4998410;28;20061;-88
2021/10/30 14:50:53;;;;;;;13.23;8.73;;;;;;;;;;4998936;28;20477;-88
2021/10/30 14:53:18;;;;;;;13.13;9.32;;;;;;;;;;4999210;28;20799;-88
2021/10/30 14:55:43;;;;;;;12.00;9.07;;;;;;;;;;4998917;28;20026;-88
2021/10/30 14:58:09;;;;;;;14.75;8.98;;;;;;;;;;5021427;28;20064;-88
2021/10/30 15:00:34;;;;;;;11.38;8.10;;;;;;;;;;5018069;28;20017;-88
2021/10/30 15:03:00;;;;;;;13.55;8.40;;;;;;;;;;5000551;28;20029;-88
2021/10/30 15:05:25;;;;;;;11.32;8.95;;;;;;;;;;4999111;28;20030;-88
2021/10/30 15:07:51;;;;;;;14.10;9.77;;;;;;;;;;4998693;28;20034;-88
2021/10/30 15:10:21;;;;;;;15.70;9.57;;;;;;;;;;4995889;28;20033;-88
2021/10/30 15:15:45;;;;;;;12.50;9.60;;;;;;;;;;2795819;22;20245;31
2021/10/30 15:18:16;;;;;;;15.27;9.75;;;;;;;;;;1394520;22;20218;-87
2021/10/30 15:20:43;;;;;;;12.25;9.75;;;;;;;;;;5033494;28;20099;-88
2021/10/30 15:23:08;;;;;;;12.32;9.32;;;;;;;;;;5035887;28;20025;-88
2021/10/30 15:25:38;;;;;;;11.85;9.43;;;;;;;;;;5037154;28;20063;-88
2021/10/30 15:28:04;;;;;;;10.73;8.85;;;;;;;;;;5031000;28;20083;-88
2021/10/30 15:30:29;;;;;;;13.88;9.32;;;;;;;;;;5035575;28;20017;-88
2021/10/30 15:32:55;;;;;;;15.75;9.80;;;;;;;;;;5018146;28;20803;-88
2021/10/30 15:35:21;;;;;;;12.82;10.15;;;;;;;;;;5016939;28;20856;-88
2021/10/30 15:37:46;;;;;;;14.98;9.77;;;;;;;;;;5017652;28;20029;-88
2021/10/30 15:40:11;;;;;;;12.70;9.93;;;;;;;;;;5016291;28;20057;-88
2021/10/30 15:42:39;;;;;;;15.57;10.43;;;;;;;;;;5016470;28;20064;-88
2021/10/30 15:45:05;;;;;;;14.82;10.30;;;;;;;;;;5048703;28;21128;-88
2021/10/30 15:47:30;;;;;;;10.82;9.07;;;;;;;;;;5055176;28;20021;-88
2021/10/30 15:49:55;;;;;;;14.98;9.68;;;;;;;;;;5031862;28;20370;-88
2021/10/30 15:52:20;;;;;;;13.52;11.35;;;;;;;;;;5032930;28;20073;-88
2021/10/30 15:54:46;;;;;;;16.52;12.27;;;;;;;;;;5032699;28;20805;-88
2021/10/30 15:57:12;;;;;;;14.20;10.77;;;;;;;;;;5032362;28;20037;-88
2021/10/30 15:59:38;;;;;;;22.52;12.82;;;;;;;;;;5032455;28;20091;-88
2021/10/30 16:02:03;;;;;;;14.20;10.95;;;;;;;;;;5042298;28;20021;-88
2021/10/30 16:04:29;;;;;;;16.63;13.18;;;;;;;;;;5033504;28;20025;-88
2021/10/30 16:06:57;;;;;;;19.27;12.15;;;;;;;;;;5033982;28;20021;-88
2021/10/30 16:09:23;;;;;;;16.15;12.63;;;;;;;;;;5033120;28;20032;-87